Time;durP1;ratioP1;P1;durP2;ratioP2;P2;SDS_P1;SDS_P2;PMS_P1;PMS_P2;Temp;Humidity;BMP_temperature;BMP_pressure;BME280_temperature;BME280_humidity;BME280_pressure;Samples;Min_cycle;Max_cycle;Signal;HPM_P1;HPM_P2
2023/05/19 00:00:43;;;;;;;9.57;3.60;;;8.20;99.90;;;;;;5049399;28;20037;-63
2023/05/19 00:03:11;;;;;;;9.43;3.60;;;8.20;99.90;;;;;;5050825;28;20048;-61
2023/05/19 00:05:44;;;;;;;13.32;4.13;;;8.20;99.90;;;;;;5049328;28;20122;-60
2023/05/19 00:08:10;;;;;;;8.07;3.22;;;8.20;99.90;;;;;;5049316;28;20404;-62
2023/05/19 00:10:37;;;;;;;8.52;3.60;;;8.10;99.90;;;;;;5050554;28;20044;-63
2023/05/19 00:13:03;;;;;;;9.05;3.70;;;8.10;99.90;;;;;;5049563;28;20124;-61
2023/05/19 00:15:29;;;;;;;6.35;3.55;;;8.10;99.90;;;;;;5065946;28;20127;-62
2023/05/19 00:17:55;;;;;;;8.77;3.58;;;8.10;99.90;;;;;;5048944;28;20041;-62
2023/05/19 00:20:21;;;;;;;8.77;4.30;;;8.10;99.90;;;;;;5049236;28;20404;-61
2023/05/19 00:22:47;;;;;;;8.75;3.92;;;8.10;99.90;;;;;;5032261;28;20091;-62
2023/05/19 00:25:13;;;;;;;10.73;4.03;;;8.10;99.90;;;;;;5049111;28;20047;-60
2023/05/19 00:27:38;;;;;;;10.05;3.75;;;8.10;99.90;;;;;;5048814;28;20041;-62
2023/05/19 00:30:05;;;;;;;12.55;3.90;;;8.00;99.90;;;;;;5050415;28;20075;-61
2023/05/19 00:32:30;;;;;;;10.38;4.03;;;8.00;99.90;;;;;;5048851;28;20037;-63
2023/05/19 00:34:56;;;;;;;13.30;3.83;;;8.00;99.90;;;;;;5050143;28;20466;-61
2023/05/19 00:37:22;;;;;;;13.15;3.80;;;8.00;99.90;;;;;;5048754;28;20071;-62
2023/05/19 00:39:48;;;;;;;10.15;4.40;;;8.00;99.90;;;;;;5048895;28;20041;-63
2023/05/19 00:42:13;;;;;;;9.65;4.50;;;8.00;99.90;;;;;;5048387;28;20039;-61
2023/05/19 00:44:40;;;;;;;9.25;4.47;;;8.00;99.90;;;;;;5050069;28;20090;-62
2023/05/19 00:47:06;;;;;;;12.43;5.43;;;8.00;99.90;;;;;;5048819;28;20480;-62
2023/05/19 00:49:32;;;;;;;10.52;3.80;;;8.00;99.90;;;;;;5049746;28;20041;-60
2023/05/19 00:52:00;;;;;;;9.52;4.25;;;7.90;99.90;;;;;;5047706;28;20396;-62
2023/05/19 00:54:25;;;;;;;10.73;4.47;;;7.90;99.90;;;;;;5030893;28;20110;-60
2023/05/19 00:56:53;;;;;;;12.43;5.05;;;7.90;99.90;;;;;;5049862;28;20040;-61
2023/05/19 00:59:18;;;;;;;11.82;3.90;;;7.90;99.90;;;;;;5049990;28;20041;-60
2023/05/19 01:01:47;;;;;;;11.07;4.22;;;7.90;99.90;;;;;;5049488;28;20036;-63
2023/05/19 01:04:20;;;;;;;10.60;4.20;;;7.90;99.90;;;;;;5048291;28;20087;-62
2023/05/19 01:06:53;;;;;;;10.65;4.57;;;7.90;99.90;;;;;;5048561;28;20480;-63
2023/05/19 01:09:22;;;;;;;11.55;4.38;;;7.90;99.90;;;;;;5048360;28;20110;-63
2023/05/19 01:11:51;;;;;;;10.55;4.32;;;7.80;99.90;;;;;;5048334;28;20048;-62
2023/05/19 01:14:18;;;;;;;10.80;4.57;;;7.80;99.90;;;;;;5049435;28;20033;-61
2023/05/19 01:16:56;;;;;;;11.88;4.45;;;7.80;99.90;;;;;;5049497;28;20049;-61
2023/05/19 01:19:46;;;;;;;10.50;4.40;;;7.80;99.90;;;;;;5048187;28;20055;-63
2023/05/19 01:22:26;;;;;;;11.75;4.57;;;7.80;99.90;;;;;;5047938;28;20056;-63
2023/05/19 01:25:41;;;;;;;8.80;4.30;;;7.80;99.90;;;;;;5048676;28;20045;-62
2023/05/19 01:28:26;;;;;;;12.60;4.63;;;7.80;99.90;;;;;;4987533;28;20058;-62
2023/05/19 01:30:57;;;;;;;11.90;4.63;;;7.80;99.90;;;;;;4987963;28;20282;-61
2023/05/19 01:33:23;;;;;;;12.48;4.53;;;7.80;99.90;;;;;;4987861;28;20141;-62
2023/05/19 01:35:50;;;;;;;11.13;4.20;;;7.80;99.90;;;;;;4987871;28;20799;-62
2023/05/19 01:38:19;;;;;;;12.63;4.35;;;7.70;99.90;;;;;;4970045;28;20058;-63
2023/05/19 01:40:46;;;;;;;11.85;4.60;;;7.70;99.90;;;;;;4987881;28;20133;-61
2023/05/19 01:43:18;;;;;;;8.40;4.40;;;7.70;99.90;;;;;;4971954;28;20046;-63
2023/05/19 01:45:44;;;;;;;9.07;4.40;;;7.80;99.90;;;;;;4987065;28;20058;-62
2023/05/19 01:48:11;;;;;;;7.28;3.90;;;7.70;99.90;;;;;;4970104;28;20057;-62
2023/05/19 01:50:37;;;;;;;9.23;3.95;;;7.70;99.90;;;;;;4971297;28;20062;-62
2023/05/19 01:53:03;;;;;;;10.93;5.32;;;7.70;99.90;;;;;;4971345;28;20130;-64
2023/05/19 01:55:29;;;;;;;9.32;4.28;;;7.60;99.90;;;;;;4974078;28;20042;-61
2023/05/19 01:58:36;;;;;;;11.90;4.63;;;7.60;99.90;;;;;;4975141;28;20139;-62
2023/05/19 02:01:29;;;;;;;14.63;4.55;;;7.60;99.90;;;;;;4967708;28;20088;-63
2023/05/19 02:04:13;;;;;;;12.50;4.80;;;7.60;99.90;;;;;;4967636;28;20051;-63
2023/05/19 02:07:11;;;;;;;11.93;4.80;;;7.60;99.90;;;;;;5052819;28;20029;-63
2023/05/19 02:10:02;;;;;;;16.58;5.63;;;7.60;99.90;;;;;;5052733;28;20045;-61
2023/05/19 02:12:32;;;;;;;11.70;4.85;;;7.60;99.90;;;;;;5052110;28;20412;-61
2023/05/19 02:15:09;;;;;;;12.38;4.95;;;7.60;99.90;;;;;;5051587;28;20041;-62
2023/05/19 02:17:40;;;;;;;10.30;4.15;;;7.50;99.90;;;;;;5051218;28;20071;-60
2023/05/19 02:20:08;;;;;;;14.48;5.30;;;7.50;99.90;;;;;;5052693;28;20040;-63
2023/05/19 02:22:34;;;;;;;11.45;4.60;;;7.60;99.90;;;;;;5051125;28;20061;-62
2023/05/19 02:24:59;;;;;;;7.20;4.22;;;7.60;99.90;;;;;;5052719;28;20056;-64
2023/05/19 02:27:25;;;;;;;11.32;4.25;;;7.50;99.90;;;;;;5051345;28;20167;-62
2023/05/19 02:29:51;;;;;;;9.93;4.38;;;7.50;99.90;;;;;;5052348;28;20059;-60
2023/05/19 02:32:17;;;;;;;12.43;4.50;;;7.50;99.90;;;;;;5052785;28;20037;-62
2023/05/19 02:34:44;;;;;;;10.95;4.80;;;7.50;99.90;;;;;;5052655;28;20400;-62
2023/05/19 02:37:13;;;;;;;11.18;4.65;;;7.50;99.90;;;;;;5051039;28;20126;-63
2023/05/19 02:39:43;;;;;;;12.75;4.57;;;7.50;99.90;;;;;;5051050;28;20116;-63
2023/05/19 02:42:08;;;;;;;12.32;4.72;;;7.50;99.90;;;;;;5051083;28;20143;-62
2023/05/19 02:44:34;;;;;;;10.27;4.07;;;7.50;99.90;;;;;;5050894;28;20231;-63
2023/05/19 02:47:00;;;;;;;11.30;4.72;;;7.50;99.90;;;;;;5052068;28;20045;-61
2023/05/19 02:49:26;;;;;;;11.77;4.57;;;7.50;99.90;;;;;;5051019;28;20044;-61
2023/05/19 02:51:52;;;;;;;11.13;4.60;;;7.60;99.90;;;;;;5050703;28;20061;-64
2023/05/19 02:54:18;;;;;;;19.10;5.00;;;7.50;99.90;;;;;;5052425;28;20045;-60
2023/05/19 02:56:43;;;;;;;9.98;4.60;;;7.60;99.90;;;;;;5050715;28;20068;-63
2023/05/19 02:59:09;;;;;;;10.00;4.10;;;7.60;99.90;;;;;;5050520;28;20403;-63
2023/05/19 03:01:36;;;;;;;9.10;4.72;;;7.60;99.90;;;;;;5050603;28;20117;-63
2023/05/19 03:04:02;;;;;;;9.23;4.03;;;7.60;99.90;;;;;;5050469;28;20048;-62
2023/05/19 03:06:28;;;;;;;8.90;4.15;;;7.60;99.90;;;;;;5050260;28;20041;-64
2023/05/19 03:08:54;;;;;;;10.88;4.50;;;7.60;99.90;;;;;;5050503;28;20072;-62
2023/05/19 03:11:19;;;;;;;9.00;4.45;;;7.60;99.90;;;;;;5051761;28;20123;-60
2023/05/19 03:13:45;;;;;;;16.27;4.93;;;7.60;99.90;;;;;;5051758;28;20444;-62
2023/05/19 03:16:11;;;;;;;11.40;4.32;;;7.60;99.90;;;;;;5051459;28;20068;-62
2023/05/19 03:18:37;;;;;;;10.90;4.22;;;7.60;99.90;;;;;;5050448;28;20557;-62
2023/05/19 03:21:03;;;;;;;12.07;4.63;;;7.60;99.90;;;;;;5050217;28;20078;-62
2023/05/19 03:23:28;;;;;;;13.30;4.53;;;7.50;99.90;;;;;;5050393;28;20045;-61
2023/05/19 03:25:55;;;;;;;12.07;4.78;;;7.50;99.90;;;;;;5050152;28;20041;-63
2023/05/19 03:28:22;;;;;;;13.25;4.28;;;7.50;99.90;;;;;;5051167;28;20043;-61
2023/05/19 03:30:49;;;;;;;9.27;4.57;;;7.50;99.90;;;;;;5050285;28;20110;-61
2023/05/19 03:33:15;;;;;;;10.18;4.38;;;7.50;99.90;;;;;;5050036;28;20159;-62
2023/05/19 03:35:40;;;;;;;12.02;4.55;;;7.50;99.90;;;;;;5051491;28;20127;-62
2023/05/19 03:38:06;;;;;;;10.23;4.75;;;7.50;99.90;;;;;;5033583;28;20037;-61
2023/05/19 03:40:32;;;;;;;14.13;4.70;;;7.50;99.90;;;;;;5050232;28;20049;-61
2023/05/19 03:42:59;;;;;;;8.60;4.70;;;7.50;99.90;;;;;;5051191;28;20037;-62
2023/05/19 03:45:25;;;;;;;11.75;4.80;;;7.50;99.90;;;;;;5050050;28;20499;-63
2023/05/19 03:47:51;;;;;;;10.68;4.68;;;7.50;99.90;;;;;;5049772;28;20037;-62
2023/05/19 03:50:16;;;;;;;12.10;5.38;;;7.40;99.90;;;;;;5051188;28;21691;-62
2023/05/19 03:52:44;;;;;;;8.60;4.38;;;7.50;99.90;;;;;;5049628;28;20040;-63
2023/05/19 03:55:09;;;;;;;13.30;4.65;;;7.50;99.90;;;;;;5050970;28;20522;-62
2023/05/19 03:57:36;;;;;;;10.88;5.10;;;7.50;99.90;;;;;;5049357;28;20473;-63
2023/05/19 04:00:04;;;;;;;13.23;4.88;;;7.50;99.90;;;;;;5051177;28;20495;-63
2023/05/19 04:02:30;;;;;;;13.52;5.05;;;7.50;99.90;;;;;;5049500;28;20170;-63
2023/05/19 04:04:56;;;;;;;13.43;5.13;;;7.60;99.90;;;;;;5049376;28;20104;-61
2023/05/19 04:07:22;;;;;;;12.00;4.85;;;7.60;99.90;;;;;;5049659;28;20512;-61
2023/05/19 04:09:49;;;;;;;12.32;5.40;;;7.60;99.90;;;;;;5049427;28;20043;-63
2023/05/19 04:12:15;;;;;;;12.18;5.30;;;7.60;99.90;;;;;;5049291;28;20461;-64
2023/05/19 04:14:41;;;;;;;13.27;4.88;;;7.60;99.90;;;;;;5050591;28;20113;-63
2023/05/19 04:17:07;;;;;;;10.60;4.55;;;7.60;99.90;;;;;;5050008;28;20040;-62
2023/05/19 04:19:32;;;;;;;12.27;4.93;;;7.70;99.90;;;;;;5050508;28;20044;-61
2023/05/19 04:21:58;;;;;;;13.32;5.95;;;7.70;99.90;;;;;;5048980;28;20045;-63
2023/05/19 04:24:24;;;;;;;10.80;5.28;;;7.80;99.90;;;;;;5050082;28;20514;-63
2023/05/19 04:26:50;;;;;;;13.07;5.18;;;7.80;99.90;;;;;;5048950;28;20496;-65
2023/05/19 04:29:19;;;;;;;13.38;5.35;;;7.90;99.90;;;;;;5049300;28;20059;-64
2023/05/19 04:31:45;;;;;;;10.82;5.35;;;8.00;99.90;;;;;;5048973;28;20033;-61
2023/05/19 04:34:10;;;;;;;12.20;5.53;;;8.00;99.90;;;;;;5032332;28;20056;-62
2023/05/19 04:36:37;;;;;;;13.32;5.60;;;8.00;99.90;;;;;;5048922;28;20138;-62
2023/05/19 04:39:06;;;;;;;12.68;6.00;;;8.00;99.90;;;;;;5048715;28;20056;-63
2023/05/19 04:41:39;;;;;;;10.23;4.88;;;8.10;99.90;;;;;;5050166;28;20037;-62
2023/05/19 04:44:07;;;;;;;12.75;5.53;;;8.20;99.90;;;;;;5050309;28;20056;-61
2023/05/19 04:46:33;;;;;;;8.93;4.95;;;8.20;99.90;;;;;;5050207;28;20037;-61
2023/05/19 04:49:00;;;;;;;12.20;5.05;;;8.30;99.90;;;;;;5048536;28;20098;-64
2023/05/19 04:51:27;;;;;;;14.15;5.30;;;8.30;99.90;;;;;;5065364;28;20047;-62
2023/05/19 04:53:54;;;;;;;14.73;5.50;;;8.40;99.90;;;;;;5049586;28;20051;-61
2023/05/19 04:56:20;;;;;;;11.30;5.40;;;8.40;99.90;;;;;;5049928;28;20041;-60
2023/05/19 04:58:46;;;;;;;9.90;5.10;;;8.40;99.90;;;;;;5048402;28;20040;-61
2023/05/19 05:01:12;;;;;;;11.38;5.60;;;8.50;99.90;;;;;;5049828;28;20178;-60
2023/05/19 05:03:38;;;;;;;10.88;5.63;;;8.60;99.90;;;;;;5048506;28;20513;-63
2023/05/19 05:06:05;;;;;;;10.57;5.55;;;8.60;99.90;;;;;;5048549;28;20029;-61
2023/05/19 05:08:31;;;;;;;12.05;5.30;;;8.60;99.90;;;;;;5049781;28;20149;-65
2023/05/19 05:10:57;;;;;;;12.07;5.20;;;8.70;99.90;;;;;;5048393;28;20053;-60
2023/05/19 05:13:23;;;;;;;14.98;5.60;;;8.70;99.90;;;;;;5048201;28;20044;-62
2023/05/19 05:15:51;;;;;;;11.23;5.85;;;8.90;99.90;;;;;;5064978;28;20047;-62
2023/05/19 05:18:17;;;;;;;16.27;6.40;;;9.00;99.90;;;;;;5047931;28;20385;-60
2023/05/19 05:20:43;;;;;;;12.50;6.25;;;9.10;99.90;;;;;;5048246;28;20061;-59
2023/05/19 05:23:13;;;;;;;11.15;5.65;;;9.20;99.90;;;;;;5047532;28;20049;-62
2023/05/19 05:25:40;;;;;;;14.10;5.90;;;9.30;99.90;;;;;;5048307;28;20040;-64
2023/05/19 05:28:06;;;;;;;12.25;5.60;;;9.40;99.90;;;;;;5048106;28;20095;-63
2023/05/19 05:30:32;;;;;;;10.52;5.88;;;9.60;99.90;;;;;;5048205;28;20458;-61
2023/05/19 05:32:58;;;;;;;10.57;5.90;;;9.70;99.90;;;;;;5048005;28;20118;-62
2023/05/19 05:35:24;;;;;;;10.55;5.45;;;9.80;99.90;;;;;;5047983;28;20032;-60
2023/05/19 05:37:50;;;;;;;12.85;5.85;;;9.90;99.90;;;;;;5049545;28;20045;-62
2023/05/19 05:40:15;;;;;;;12.45;5.43;;;10.00;99.90;;;;;;5048325;28;20052;-62
2023/05/19 05:42:42;;;;;;;11.13;6.15;;;10.00;99.90;;;;;;5047993;28;20075;-61
2023/05/19 05:45:08;;;;;;;9.90;5.03;;;10.10;99.90;;;;;;5048010;28;20061;-60
2023/05/19 05:47:36;;;;;;;12.02;5.07;;;10.30;99.90;;;;;;5049176;28;20545;-63
2023/05/19 05:50:03;;;;;;;9.77;5.15;;;10.40;99.90;;;;;;5048144;28;20115;-63
2023/05/19 05:52:31;;;;;;;14.20;5.32;;;10.50;99.90;;;;;;5047040;28;20059;-61
2023/05/19 05:54:57;;;;;;;11.95;4.93;;;10.70;99.90;;;;;;5049461;28;20037;-61
2023/05/19 05:57:23;;;;;;;10.98;4.95;;;10.70;99.90;;;;;;5047738;28;20074;-64
2023/05/19 05:59:49;;;;;;;12.95;5.40;;;10.80;99.90;;;;;;5047865;28;20053;-63
2023/05/19 06:02:16;;;;;;;11.00;5.18;;;10.70;99.90;;;;;;5049022;28;20044;-63
2023/05/19 06:04:42;;;;;;;12.75;5.13;;;10.80;99.90;;;;;;5048980;28;20040;-64
2023/05/19 06:07:08;;;;;;;10.80;4.97;;;10.80;99.90;;;;;;5049337;28;20037;-62
2023/05/19 06:09:34;;;;;;;9.52;4.90;;;11.00;99.90;;;;;;5030951;28;20073;-62
2023/05/19 06:12:00;;;;;;;10.88;5.00;;;11.20;99.90;;;;;;5048965;28;20480;-62
2023/05/19 06:14:25;;;;;;;10.77;4.85;;;11.30;99.90;;;;;;5047742;28;20472;-62
2023/05/19 06:16:51;;;;;;;10.00;4.70;;;11.50;99.90;;;;;;5047486;28;20041;-62
2023/05/19 06:19:18;;;;;;;10.52;4.60;;;11.70;99.90;;;;;;5047572;28;20110;-61
2023/05/19 06:21:44;;;;;;;9.07;4.95;;;11.80;99.90;;;;;;5047362;28;20057;-62
2023/05/19 06:24:10;;;;;;;10.70;4.95;;;11.90;99.90;;;;;;5049068;28;20415;-63
2023/05/19 06:26:35;;;;;;;10.02;4.72;;;12.10;99.90;;;;;;5047388;28;20037;-63
2023/05/19 06:29:01;;;;;;;13.15;4.35;;;12.20;99.90;;;;;;5047655;28;20150;-61
2023/05/19 06:31:27;;;;;;;8.90;4.13;;;12.40;99.90;;;;;;5047611;28;20041;-61
2023/05/19 06:33:53;;;;;;;9.57;4.25;;;12.50;99.90;;;;;;5047625;28;20487;-61
2023/05/19 06:36:19;;;;;;;9.50;4.80;;;12.70;99.90;;;;;;5048943;28;20106;-61
2023/05/19 06:38:44;;;;;;;6.93;3.88;;;12.80;99.90;;;;;;5047467;28;20042;-63
2023/05/19 06:41:10;;;;;;;7.32;4.65;;;13.00;99.90;;;;;;5051135;28;20080;-62
2023/05/19 06:43:36;;;;;;;13.10;4.20;;;13.10;99.90;;;;;;5050961;28;20120;-62
2023/05/19 06:46:01;;;;;;;8.95;4.10;;;13.10;99.90;;;;;;5052196;28;20391;-61
2023/05/19 06:48:27;;;;;;;12.40;3.72;;;13.20;99.90;;;;;;5052132;28;20078;-60
2023/05/19 06:50:53;;;;;;;9.40;3.80;;;13.30;99.90;;;;;;5050678;28;20033;-62
2023/05/19 06:53:20;;;;;;;9.93;3.80;;;13.40;99.90;;;;;;5050886;28;20126;-64
2023/05/19 06:55:45;;;;;;;10.98;4.97;;;13.50;99.90;;;;;;5052231;28;20116;-63
2023/05/19 06:58:11;;;;;;;7.53;3.55;;;13.70;99.90;;;;;;5052017;28;20161;-63
2023/05/19 07:00:37;;;;;;;10.10;3.88;;;13.80;99.90;;;;;;5052188;28;20033;-61
2023/05/19 07:03:02;;;;;;;10.98;3.53;;;13.90;99.90;;;;;;5050447;28;20629;-61
2023/05/19 07:05:28;;;;;;;6.90;3.55;;;14.00;99.90;;;;;;5049117;28;20033;-61
2023/05/19 07:07:54;;;;;;;9.88;3.63;;;14.10;99.90;;;;;;5052057;28;20097;-63
2023/05/19 07:10:20;;;;;;;8.13;3.40;;;14.20;99.90;;;;;;5051645;28;20392;-62
2023/05/19 07:12:46;;;;;;;8.25;3.55;;;14.30;99.90;;;;;;5050494;28;20044;-62
2023/05/19 07:15:12;;;;;;;8.82;3.15;;;14.40;99.90;;;;;;5051811;28;20041;-63
2023/05/19 07:17:37;;;;;;;7.15;3.40;;;14.40;99.90;;;;;;5051644;28;20033;-61
2023/05/19 07:20:05;;;;;;;7.75;2.95;;;14.60;99.90;;;;;;5050193;28;20040;-62
2023/05/19 07:22:34;;;;;;;8.60;2.90;;;14.70;99.90;;;;;;5049969;28;20053;-62
2023/05/19 07:24:59;;;;;;;6.93;3.38;;;14.80;99.90;;;;;;5050489;28;20491;-63
2023/05/19 07:27:25;;;;;;;10.30;3.08;;;14.90;99.90;;;;;;5051328;28;20048;-63
2023/05/19 07:29:51;;;;;;;7.43;3.10;;;15.10;99.90;;;;;;5050148;28;20037;-65
2023/05/19 07:32:17;;;;;;;10.80;3.63;;;15.20;99.90;;;;;;5049887;28;20044;-64
2023/05/19 07:34:42;;;;;;;8.95;2.60;;;15.30;99.90;;;;;;5050319;28;20041;-64
2023/05/19 07:37:08;;;;;;;7.15;3.22;;;15.30;99.90;;;;;;5051352;28;20037;-64
2023/05/19 07:39:34;;;;;;;6.88;2.95;;;15.30;99.90;;;;;;5049899;28;20048;-63
2023/05/19 07:42:00;;;;;;;7.35;3.38;;;15.40;99.90;;;;;;5049989;28;20033;-62
2023/05/19 07:44:26;;;;;;;6.18;2.63;;;15.60;99.90;;;;;;5051057;28;20036;-60
2023/05/19 07:46:53;;;;;;;11.00;3.10;;;15.70;99.90;;;;;;5051178;28;20123;-65
2023/05/19 07:49:19;;;;;;;5.45;2.55;;;15.90;99.90;;;;;;5049815;28;20045;-63
2023/05/19 07:51:45;;;;;;;7.07;2.83;;;16.10;99.90;;;;;;5048765;28;20475;-60
2023/05/19 07:54:10;;;;;;;6.82;2.63;;;16.20;99.90;;;;;;5049579;28;20131;-62
2023/05/19 07:56:36;;;;;;;8.02;2.55;;;16.40;99.90;;;;;;5050988;28;20124;-63
2023/05/19 07:59:03;;;;;;;6.45;2.40;;;16.50;99.90;;;;;;5050599;28;20076;-63
2023/05/19 08:01:29;;;;;;;9.25;2.78;;;16.50;99.90;;;;;;5049478;28;20040;-64
2023/05/19 08:03:55;;;;;;;4.93;2.35;;;16.60;99.90;;;;;;5049459;28;20045;-62
2023/05/19 08:06:21;;;;;;;7.10;2.42;;;16.60;99.90;;;;;;5050802;28;20044;-61
2023/05/19 08:08:47;;;;;;;6.13;2.85;;;16.70;99.90;;;;;;5049363;28;20067;-63
2023/05/19 08:11:12;;;;;;;8.30;2.25;;;16.90;99.90;;;;;;5050812;28;20044;-64
2023/05/19 08:13:38;;;;;;;10.20;2.45;;;17.00;99.90;;;;;;5049230;28;20107;-61
2023/05/19 08:16:04;;;;;;;7.95;2.53;;;17.20;99.90;;;;;;5049339;28;20041;-63
2023/05/19 08:18:30;;;;;;;6.40;2.35;;;17.30;99.90;;;;;;5050681;28;20514;-63
2023/05/19 08:20:56;;;;;;;11.63;2.67;;;17.40;98.90;;;;;;5049570;28;20147;-64
2023/05/19 08:23:21;;;;;;;9.77;2.58;;;17.40;98.00;;;;;;5050294;28;20056;-64
2023/05/19 08:25:47;;;;;;;4.88;2.28;;;17.50;97.90;;;;;;5049081;28;20041;-62
2023/05/19 08:28:12;;;;;;;6.88;2.42;;;17.50;97.40;;;;;;5049430;28;20041;-64
2023/05/19 08:30:38;;;;;;;8.50;3.05;;;17.70;97.60;;;;;;5048749;28;20080;-63
2023/05/19 08:33:05;;;;;;;5.95;2.20;;;17.70;96.90;;;;;;5050980;28;20044;-61
2023/05/19 08:35:30;;;;;;;7.80;2.53;;;17.80;96.70;;;;;;5050362;28;20178;-62
2023/05/19 08:37:56;;;;;;;7.70;2.88;;;17.80;95.90;;;;;;5048998;28;20115;-63
2023/05/19 08:40:22;;;;;;;7.28;2.45;;;17.80;95.70;;;;;;5050162;28;20044;-63
2023/05/19 08:42:48;;;;;;;7.57;2.20;;;17.80;95.90;;;;;;5050176;28;20513;-62
2023/05/19 08:45:14;;;;;;;7.68;2.50;;;17.90;95.90;;;;;;5048626;28;20037;-61
2023/05/19 08:47:41;;;;;;;4.75;2.30;;;18.00;95.50;;;;;;5049019;28;20531;-63
2023/05/19 08:50:09;;;;;;;6.13;2.38;;;18.00;95.40;;;;;;5048583;28;20047;-61
2023/05/19 08:52:54;;;;;;;7.28;2.60;;;18.00;95.70;;;;;;5049155;28;20434;-64
2023/05/19 08:55:32;;;;;;;7.45;2.75;;;18.10;95.00;;;;;;5050274;28;20060;-62
2023/05/19 08:58:00;;;;;;;5.22;2.10;;;18.10;94.90;;;;;;5050049;28;20044;-62
2023/05/19 09:00:26;;;;;;;5.20;2.53;;;18.10;94.90;;;;;;5049867;28;20040;-63
2023/05/19 09:02:53;;;;;;;7.57;2.45;;;18.10;93.80;;;;;;5049431;28;20044;-63
2023/05/19 09:05:19;;;;;;;7.00;2.47;;;18.10;93.80;;;;;;5050010;28;20400;-63
2023/05/19 09:07:47;;;;;;;8.35;2.42;;;17.90;93.00;;;;;;5049733;28;20036;-62
2023/05/19 09:10:14;;;;;;;8.38;3.10;;;17.70;92.40;;;;;;5049493;28;20055;-62
2023/05/19 09:12:45;;;;;;;8.55;2.83;;;17.70;92.70;;;;;;5048221;28;20040;-60
2023/05/19 09:15:12;;;;;;;8.80;2.67;;;17.70;92.30;;;;;;5049639;28;20392;-61
2023/05/19 09:17:38;;;;;;;6.53;2.83;;;17.70;92.80;;;;;;5049851;28;20484;-62
2023/05/19 09:20:11;;;;;;;7.50;2.67;;;17.90;93.60;;;;;;5048081;28;20045;-64
2023/05/19 09:22:46;;;;;;;9.10;2.47;;;18.20;93.40;;;;;;5031367;28;20047;-62
2023/05/19 09:25:19;;;;;;;7.82;2.40;;;18.60;93.20;;;;;;5049408;28;20119;-63
2023/05/19 09:27:47;;;;;;;5.53;2.25;;;18.70;91.80;;;;;;5048175;28;20049;-63
2023/05/19 09:30:14;;;;;;;9.20;2.72;;;18.90;92.10;;;;;;5049476;28;20460;-62
2023/05/19 09:32:39;;;;;;;5.57;2.30;;;19.10;91.60;;;;;;5048132;28;20043;-63
2023/05/19 09:35:06;;;;;;;7.05;2.53;;;19.20;91.60;;;;;;5049352;28;20459;-63
2023/05/19 09:37:32;;;;;;;5.63;2.00;;;19.40;91.30;;;;;;5030566;28;20128;-63
2023/05/19 09:39:58;;;;;;;5.55;2.17;;;19.60;90.80;;;;;;5047354;28;20132;-62
2023/05/19 09:42:28;;;;;;;9.68;2.70;;;19.70;90.50;;;;;;5047857;28;20028;-63
2023/05/19 09:45:04;;;;;;;9.65;2.10;;;19.90;90.30;;;;;;5048202;28;20041;-62
2023/05/19 09:47:37;;;;;;;5.18;2.17;;;20.10;90.70;;;;;;5049173;28;20086;-62
2023/05/19 09:50:08;;;;;;;5.25;2.00;;;20.30;90.40;;;;;;5047672;28;20051;-64
2023/05/19 09:52:37;;;;;;;8.77;2.65;;;20.40;89.10;;;;;;5049340;28;20120;-64
2023/05/19 09:55:05;;;;;;;7.00;1.70;;;20.40;87.10;;;;;;5049297;28;20037;-62
2023/05/19 09:57:38;;;;;;;7.53;2.30;;;20.30;87.40;;;;;;5048036;28;20049;-63
2023/05/19 10:00:18;;;;;;;5.93;2.20;;;20.40;86.60;;;;;;5049190;28;20523;-61
2023/05/19 10:02:45;;;;;;;4.55;2.25;;;20.30;83.20;;;;;;5048988;28;20041;-63
2023/05/19 10:05:18;;;;;;;6.10;1.95;;;20.20;84.40;;;;;;5048126;28;20048;-63
2023/05/19 10:07:51;;;;;;;6.82;2.25;;;19.90;81.70;;;;;;5049291;28;20044;-63
2023/05/19 10:10:20;;;;;;;6.38;2.00;;;19.70;82.30;;;;;;5049232;28;20388;-61
2023/05/19 10:12:47;;;;;;;10.90;2.53;;;19.80;82.90;;;;;;5047727;28;20159;-62
2023/05/19 10:15:15;;;;;;;6.55;2.00;;;20.00;86.30;;;;;;5049844;28;20087;-62
2023/05/19 10:17:42;;;;;;;5.25;2.00;;;20.20;85.50;;;;;;5051416;28;20037;-62
2023/05/19 10:20:12;;;;;;;6.85;2.00;;;20.60;86.80;;;;;;5052957;28;20577;-61
2023/05/19 10:22:39;;;;;;;7.75;2.20;;;20.70;84.30;;;;;;5051155;28;20056;-62
2023/05/19 10:25:06;;;;;;;6.05;1.88;;;20.90;83.80;;;;;;5051394;28;20049;-62
2023/05/19 10:27:39;;;;;;;10.73;2.40;;;21.20;83.20;;;;;;5052526;28;20033;-63
2023/05/19 10:30:12;;;;;;;5.43;2.10;;;21.30;79.80;;;;;;5052805;28;20049;-61
2023/05/19 10:32:40;;;;;;;7.50;2.45;;;21.40;79.40;;;;;;5050415;28;20127;-63
2023/05/19 10:35:19;;;;;;;6.45;2.10;;;21.50;78.90;;;;;;5051763;28;20040;-61
2023/05/19 10:37:50;;;;;;;7.25;1.95;;;21.40;77.80;;;;;;5051944;28;20033;-63
2023/05/19 10:40:25;;;;;;;6.85;1.95;;;21.40;77.70;;;;;;5051131;28;20171;-62
2023/05/19 10:43:06;;;;;;;7.70;2.03;;;21.70;81.10;;;;;;5051905;28;20391;-62
2023/05/19 10:45:38;;;;;;;4.47;1.70;;;21.80;77.90;;;;;;5050182;28;20044;-62
2023/05/19 10:48:04;;;;;;;7.32;2.05;;;21.90;76.50;;;;;;5051332;28;20132;-64
2023/05/19 10:50:36;;;;;;;6.47;1.90;;;21.80;77.90;;;;;;5051917;28;20130;-64
2023/05/19 10:53:02;;;;;;;;;;;21.90;77.50;;;;;;5052652;28;20516;-61
2023/05/19 10:55:52;;;;;;;4.22;1.63;;;21.90;77.40;;;;;;5050901;28;20013;-62
2023/05/19 10:58:38;;;;;;;6.55;2.10;;;21.70;74.70;;;;;;5044417;28;20107;-63
2023/05/19 11:01:08;;;;;;;8.80;1.98;;;21.40;74.10;;;;;;5051051;28;20037;-63
2023/05/19 11:03:50;;;;;;;5.93;1.80;;;21.40;76.10;;;;;;5049533;28;20042;-61
2023/05/19 11:06:29;;;;;;;6.95;1.90;;;21.40;75.40;;;;;;5051849;28;20044;-61
2023/05/19 11:08:59;;;;;;;3.97;1.90;;;21.40;76.40;;;;;;5051633;28;20155;-63
2023/05/19 11:11:26;;;;;;;4.85;1.63;;;21.50;74.20;;;;;;5050720;28;20045;-62
2023/05/19 11:13:55;;;;;;;7.43;2.45;;;21.40;74.50;;;;;;5050798;28;20112;-61
2023/05/19 11:16:28;;;;;;;4.53;1.73;;;21.50;75.90;;;;;;5051882;28;20483;-63
2023/05/19 11:18:55;;;;;;;5.38;2.05;;;21.40;74.20;;;;;;5051676;28;20041;-63
2023/05/19 11:21:21;;;;;;;9.82;2.00;;;21.30;74.00;;;;;;5050427;28;20514;-61
2023/05/19 11:23:46;;;;;;;82.05;8.15;;;21.60;75.40;;;;;;5051544;28;20123;-62
2023/05/19 11:26:12;;;;;;;6.40;2.22;;;21.70;75.80;;;;;;5050224;28;20056;-63
2023/05/19 11:28:39;;;;;;;4.00;1.70;;;21.80;74.20;;;;;;5050253;28;20036;-61
2023/05/19 11:31:09;;;;;;;3.53;1.50;;;21.70;72.30;;;;;;5051492;28;20455;-61
2023/05/19 11:33:35;;;;;;;8.25;2.13;;;21.60;71.10;;;;;;5050170;28;20051;-61
2023/05/19 11:36:03;;;;;;;6.80;2.08;;;21.50;70.90;;;;;;5051376;28;20120;-64
2023/05/19 11:38:31;;;;;;;5.15;1.67;;;21.30;69.70;;;;;;5049710;28;20442;-62
2023/05/19 11:40:57;;;;;;;7.97;1.88;;;21.20;69.80;;;;;;5050065;28;20037;-62
2023/05/19 11:43:23;;;;;;;5.07;1.65;;;21.00;70.30;;;;;;5049829;28;20139;-62
2023/05/19 11:45:50;;;;;;;5.65;1.80;;;20.80;70.20;;;;;;5051620;28;20105;-64
2023/05/19 11:48:16;;;;;;;4.15;1.70;;;20.80;69.60;;;;;;5049744;28;20041;-63
2023/05/19 11:50:42;;;;;;;5.90;1.92;;;20.60;70.30;;;;;;5050105;28;20377;-61
2023/05/19 11:53:12;;;;;;;6.75;2.10;;;20.70;71.40;;;;;;5049764;28;20088;-61
2023/05/19 11:55:45;;;;;;;7.35;2.15;;;20.70;71.00;;;;;;5049678;28;20047;-62
2023/05/19 11:58:11;;;;;;;8.80;2.00;;;20.80;69.40;;;;;;5049780;28;20373;-63
2023/05/19 12:00:39;;;;;;;6.53;2.13;;;20.80;69.70;;;;;;5051235;28;20036;-63
2023/05/19 12:03:06;;;;;;;6.63;1.90;;;20.90;69.60;;;;;;5049556;28;20044;-63
2023/05/19 12:05:34;;;;;;;4.20;1.50;;;20.90;71.40;;;;;;5050786;28;20083;-62
2023/05/19 12:08:01;;;;;;;2.30;1.40;;;21.00;72.60;;;;;;5049673;28;20033;-64
2023/05/19 12:10:29;;;;;;;7.25;2.08;;;21.20;73.50;;;;;;5050665;28;20032;-62
2023/05/19 12:12:59;;;;;;;6.47;1.90;;;21.20;71.20;;;;;;5049415;28;20056;-62
2023/05/19 12:15:25;;;;;;;6.18;1.92;;;21.20;71.10;;;;;;5049400;28;20073;-62
2023/05/19 12:17:59;;;;;;;9.35;2.72;;;21.00;70.80;;;;;;5049122;28;20122;-61
2023/05/19 12:20:26;;;;;;;4.75;2.15;;;21.00;72.10;;;;;;5049277;28;20041;-63
2023/05/19 12:22:54;;;;;;;5.63;1.60;;;20.90;71.90;;;;;;5050308;28;20125;-62
2023/05/19 12:25:20;;;;;;;5.40;1.70;;;20.90;71.60;;;;;;5032622;28;20641;-62
2023/05/19 12:27:48;;;;;;;5.25;1.63;;;20.70;70.80;;;;;;5049111;28;20051;-63
2023/05/19 12:30:14;;;;;;;6.38;1.88;;;20.70;70.90;;;;;;5050109;28;20041;-64
2023/05/19 12:32:40;;;;;;;4.70;1.70;;;20.60;69.90;;;;;;5050077;28;20051;-63
2023/05/19 12:35:06;;;;;;;10.57;1.70;;;20.60;69.90;;;;;;5049044;28;20037;-62
2023/05/19 12:37:33;;;;;;;5.55;1.75;;;20.60;70.30;;;;;;5048452;28;20052;-63
2023/05/19 12:39:59;;;;;;;5.10;1.65;;;20.50;68.90;;;;;;5048549;28;20094;-62
2023/05/19 12:42:30;;;;;;;7.63;1.88;;;20.50;70.70;;;;;;5048983;28;20458;-64
2023/05/19 12:44:56;;;;;;;5.35;1.77;;;20.50;71.00;;;;;;5048983;28;20041;-64
2023/05/19 12:47:35;;;;;;;7.40;1.70;;;20.40;71.20;;;;;;5050469;28;20071;-62
2023/05/19 12:50:07;;;;;;;5.63;1.70;;;20.40;71.60;;;;;;5050081;28;20141;-62
2023/05/19 12:52:39;;;;;;;5.85;1.70;;;20.40;70.90;;;;;;5048730;28;20067;-62